GOES-16 Infra (Sul)

Satélite GOES-16 CPTEC

GOES-16 Visível (Sul)

Satélite CPTEC Visível

Radar

Sem informação disponível

Raios (Sul)

Radios Simepar

Pressão e ventos(nós)

Pressao e Ventos (Climatempo)

Previsão para Florianópolis

Sexta-feira


Sexta à noite


Sábado

Parcialmente Nublado

27º / 23º

Domingo

Possibilidade de Chuva

27º / 23º

Segunda-feira

Possibilidade de Trovoada

29º / 24º

Aeroporto Florianópolis/SC (FLN) - SBFL


Situação: Informação não disponível

Atualização: 1336 UTC 19 Jan 2018

Vento: 08KT (15,6 Km/h) - Sul-sudeste (SSE) (160º)

Visibilidade: Maior que 10.000 metros

Nuvens esparsas a 4800 ft

Temperatura: 26ºC / 20ºC

Pressão: 1014 hPa

Data at: 1336 UTC 19 Jan 2018SBFL 191300Z 16008KT 9999 SCT048 26/20 Q1014